Brookwood, Ohio
Current Conditions -  °F | °C
As of 5:15 PM on Friday 24 Oct 2014 (Local Time) from KI69 Reporting Station
Clear Clear  
Wind Chill: 64°   Ceiling: Unl
Heat Index: 64°   Visibility: 10mi
Dew Point: 37°   Wind: 7mph
Humidity: 37%   Direction: 270°W
Pressure: 30.04"   Gusts: NA
Location:  39.2053°N, 84.5807°W
Report Text: KI69 242115Z AUTO 27006KT 10SM CLR 18/03 A3004 RMK AO1
Loading
Personal Weather Stations






























Interactive Weather Map
Tropical Storm Tracking
New forecast layout! Learn more

10-Day Weather Forecast

Advertisements
Track Severe Weather on mobile